RYR3PT EPLL-LKPR
Flight info
| Callsign | RYR3PT |
|---|---|
| Flight time | 1h 2m |
| Altitude | 32000 |
| Route | BAXIS N869 TOMTI/N0277F080 N869 ASTEL P861 GOLOP |
| Aircraft | B738/M-SDE2E3FGHIRWXY/LB1 |
Departure
| Time | 2026-05-08 19:59 |
|---|---|
| Airport | Łódź Władysław Reymont Airport (EPLL) |
Arrival
| Time | 2026-05-08 21:02 |
|---|---|
| Airport | Václav Havel Airport Prague (LKPR) |
| Time | Latitude | Longitude | Altitude | Speed | Heading |
|---|---|---|---|---|---|
| 2026-05-08 19:36 | 51.72583 | 19.39979 | 614 ft | 0 kts | 340° |
| 2026-05-08 19:52 | 51.72564 | 19.39990 | 626 ft | 2 kts | 340° |
| 2026-05-08 19:53 | 51.72550 | 19.39997 | 619 ft | 4 kts | 358° |
| 2026-05-08 19:53 | 51.72530 | 19.39985 | 614 ft | 4 kts | 60° |
| 2026-05-08 19:53 | 51.72522 | 19.39957 | 629 ft | 1 kts | 71° |
| 2026-05-08 19:53 | 51.72521 | 19.39952 | 629 ft | 0 kts | 71° |
| 2026-05-08 19:55 | 51.72522 | 19.39956 | 614 ft | 2 kts | 70° |
| 2026-05-08 19:55 | 51.72538 | 19.40028 | 619 ft | 9 kts | 70° |
| 2026-05-08 19:56 | 51.72560 | 19.40133 | 619 ft | 10 kts | 64° |
| 2026-05-08 19:56 | 51.72586 | 19.40237 | 617 ft | 10 kts | 74° |
| 2026-05-08 19:56 | 51.72591 | 19.40346 | 614 ft | 10 kts | 94° |
| 2026-05-08 19:56 | 51.72559 | 19.40448 | 614 ft | 11 kts | 130° |
| 2026-05-08 19:57 | 51.72502 | 19.40527 | 622 ft | 11 kts | 150° |
| 2026-05-08 19:57 | 51.72500 | 19.40529 | 622 ft | 0 kts | 157° |
| 2026-05-08 19:58 | 51.72493 | 19.40533 | 625 ft | 5 kts | 156° |
| 2026-05-08 19:58 | 51.72448 | 19.40564 | 614 ft | 8 kts | 156° |
| 2026-05-08 19:58 | 51.72388 | 19.40603 | 618 ft | 10 kts | 169° |
| 2026-05-08 19:58 | 51.72337 | 19.40539 | 613 ft | 11 kts | 253° |
| 2026-05-08 19:59 | 51.72282 | 19.40253 | 619 ft | 65 kts | 250° |
| 2026-05-08 19:59 | 51.72030 | 19.39083 | 600 ft | 151 kts | 253° |
| 2026-05-08 19:59 | 51.71680 | 19.37253 | 1118 ft | 186 kts | 254° |
| 2026-05-08 19:59 | 51.71286 | 19.35113 | 2019 ft | 205 kts | 255° |
| 2026-05-08 20:00 | 51.70910 | 19.33011 | 3268 ft | 191 kts | 255° |
| 2026-05-08 20:00 | 51.70583 | 19.31076 | 4636 ft | 168 kts | 256° |
| 2026-05-08 20:00 | 51.70304 | 19.29263 | 5457 ft | 172 kts | 257° |
| 2026-05-08 20:00 | 51.70026 | 19.27242 | 5816 ft | 196 kts | 258° |
| 2026-05-08 20:01 | 51.69755 | 19.25060 | 6440 ft | 196 kts | 260° |
| 2026-05-08 20:01 | 51.69699 | 19.22952 | 7213 ft | 190 kts | 287° |
| 2026-05-08 20:01 | 51.70524 | 19.21158 | 7254 ft | 215 kts | 328° |
| 2026-05-08 20:01 | 51.71936 | 19.19974 | 7268 ft | 242 kts | 327° |
| 2026-05-08 20:02 | 51.73327 | 19.18379 | 7271 ft | 247 kts | 318° |
| 2026-05-08 20:02 | 51.74581 | 19.16477 | 7262 ft | 247 kts | 312° |
| 2026-05-08 20:02 | 51.75736 | 19.14431 | 7249 ft | 246 kts | 309° |
| 2026-05-08 20:02 | 51.76844 | 19.12325 | 7249 ft | 246 kts | 308° |
| 2026-05-08 20:03 | 51.77931 | 19.10202 | 7270 ft | 246 kts | 308° |
| 2026-05-08 20:03 | 51.78845 | 19.07878 | 7684 ft | 248 kts | 286° |
| 2026-05-08 20:03 | 51.79151 | 19.05158 | 8335 ft | 246 kts | 278° |
| 2026-05-08 20:03 | 51.79404 | 19.02408 | 8934 ft | 249 kts | 278° |
| 2026-05-08 20:04 | 51.79662 | 18.99632 | 9528 ft | 251 kts | 278° |
| 2026-05-08 20:04 | 51.79924 | 18.96832 | 10086 ft | 254 kts | 278° |
| 2026-05-08 20:04 | 51.80188 | 18.94009 | 10140 ft | 254 kts | 278° |
| 2026-05-08 20:04 | 51.80453 | 18.91183 | 10147 ft | 255 kts | 278° |
| 2026-05-08 20:05 | 51.80718 | 18.88358 | 10165 ft | 254 kts | 278° |
| 2026-05-08 20:05 | 51.80731 | 18.85662 | 10143 ft | 254 kts | 257° |
| 2026-05-08 20:05 | 51.80170 | 18.82922 | 10174 ft | 254 kts | 251° |
| 2026-05-08 20:05 | 51.79571 | 18.80241 | 10195 ft | 253 kts | 251° |
| 2026-05-08 20:06 | 51.78971 | 18.77564 | 10587 ft | 256 kts | 251° |
| 2026-05-08 20:06 | 51.78356 | 18.74814 | 10967 ft | 264 kts | 251° |
| 2026-05-08 20:06 | 51.77727 | 18.71997 | 11346 ft | 268 kts | 251° |
| 2026-05-08 20:06 | 51.77095 | 18.69165 | 11714 ft | 268 kts | 251° |
| 2026-05-08 20:07 | 51.76464 | 18.66337 | 12098 ft | 268 kts | 251° |
| 2026-05-08 20:07 | 51.75834 | 18.63511 | 12465 ft | 268 kts | 251° |
| 2026-05-08 20:07 | 51.75205 | 18.60691 | 12852 ft | 267 kts | 251° |
| 2026-05-08 20:07 | 51.74574 | 18.57863 | 13251 ft | 267 kts | 251° |
| 2026-05-08 20:08 | 51.73943 | 18.55042 | 13643 ft | 268 kts | 251° |
| 2026-05-08 20:08 | 51.73310 | 18.52208 | 14046 ft | 269 kts | 251° |
| 2026-05-08 20:08 | 51.72681 | 18.49402 | 14392 ft | 270 kts | 251° |
| 2026-05-08 20:08 | 51.72032 | 18.46506 | 14768 ft | 272 kts | 251° |
| 2026-05-08 20:09 | 51.71396 | 18.43670 | 15134 ft | 274 kts | 251° |
| 2026-05-08 20:09 | 51.70745 | 18.40775 | 15508 ft | 275 kts | 251° |
| 2026-05-08 20:09 | 51.70090 | 18.37865 | 15882 ft | 277 kts | 251° |
| 2026-05-08 20:09 | 51.69429 | 18.34933 | 16264 ft | 279 kts | 251° |
| 2026-05-08 20:10 | 51.68765 | 18.31990 | 16651 ft | 280 kts | 251° |
| 2026-05-08 20:10 | 51.68097 | 18.29033 | 17053 ft | 282 kts | 251° |
| 2026-05-08 20:10 | 51.67425 | 18.26062 | 17446 ft | 283 kts | 251° |
| 2026-05-08 20:10 | 51.66750 | 18.23082 | 17843 ft | 284 kts | 251° |
| 2026-05-08 20:11 | 51.66071 | 18.20091 | 18249 ft | 285 kts | 251° |
| 2026-05-08 20:11 | 51.65388 | 18.17087 | 18636 ft | 286 kts | 251° |
| 2026-05-08 20:11 | 51.64703 | 18.14077 | 18998 ft | 287 kts | 251° |
| 2026-05-08 20:11 | 51.64015 | 18.11056 | 19350 ft | 287 kts | 251° |
| 2026-05-08 20:12 | 51.63325 | 18.08034 | 19721 ft | 288 kts | 251° |
| 2026-05-08 20:12 | 51.62634 | 18.05011 | 20085 ft | 288 kts | 251° |
| 2026-05-08 20:12 | 51.61943 | 18.01988 | 20463 ft | 288 kts | 251° |
| 2026-05-08 20:12 | 51.61252 | 17.98970 | 20827 ft | 288 kts | 251° |
| 2026-05-08 20:13 | 51.60560 | 17.95953 | 21209 ft | 287 kts | 251° |
| 2026-05-08 20:13 | 51.59869 | 17.92946 | 21594 ft | 286 kts | 251° |
| 2026-05-08 20:13 | 51.59178 | 17.89947 | 21985 ft | 285 kts | 251° |
| 2026-05-08 20:13 | 51.58488 | 17.86961 | 22376 ft | 284 kts | 251° |
| 2026-05-08 20:14 | 51.57796 | 17.83993 | 22777 ft | 283 kts | 251° |
| 2026-05-08 20:14 | 51.57105 | 17.81036 | 23185 ft | 282 kts | 251° |
| 2026-05-08 20:14 | 51.56417 | 17.78096 | 23598 ft | 280 kts | 251° |
| 2026-05-08 20:14 | 51.55733 | 17.75178 | 23966 ft | 278 kts | 251° |
| 2026-05-08 20:15 | 51.55052 | 17.72274 | 24308 ft | 276 kts | 251° |
| 2026-05-08 20:15 | 51.54377 | 17.69397 | 24665 ft | 274 kts | 251° |
| 2026-05-08 20:15 | 51.53707 | 17.66544 | 25019 ft | 272 kts | 251° |
| 2026-05-08 20:15 | 51.53042 | 17.63718 | 25373 ft | 269 kts | 251° |
| 2026-05-08 20:16 | 51.52382 | 17.60916 | 25728 ft | 267 kts | 251° |
| 2026-05-08 20:16 | 51.51729 | 17.58148 | 26093 ft | 264 kts | 251° |
| 2026-05-08 20:16 | 51.51084 | 17.55414 | 26474 ft | 261 kts | 251° |
| 2026-05-08 20:16 | 51.50445 | 17.52708 | 26847 ft | 257 kts | 251° |
| 2026-05-08 20:17 | 51.49816 | 17.50050 | 27221 ft | 253 kts | 251° |
| 2026-05-08 20:17 | 51.49197 | 17.47433 | 27595 ft | 248 kts | 251° |
| 2026-05-08 20:17 | 51.48589 | 17.44869 | 27972 ft | 244 kts | 251° |
| 2026-05-08 20:17 | 51.47992 | 17.42361 | 28356 ft | 238 kts | 251° |
| 2026-05-08 20:18 | 51.47409 | 17.39915 | 28748 ft | 231 kts | 251° |
| 2026-05-08 20:18 | 51.46846 | 17.37544 | 29126 ft | 224 kts | 251° |
| 2026-05-08 20:18 | 51.46305 | 17.35259 | 29499 ft | 215 kts | 251° |
| 2026-05-08 20:18 | 51.45789 | 17.33079 | 29879 ft | 203 kts | 251° |
| 2026-05-08 20:19 | 51.45291 | 17.30975 | 29991 ft | 204 kts | 251° |
| 2026-05-08 20:19 | 51.44787 | 17.28843 | 30017 ft | 205 kts | 251° |
| 2026-05-08 20:19 | 51.44280 | 17.26700 | 30045 ft | 207 kts | 251° |
| 2026-05-08 20:19 | 51.43767 | 17.24536 | 30088 ft | 209 kts | 251° |
| 2026-05-08 20:20 | 51.43247 | 17.22344 | 30126 ft | 211 kts | 251° |
| 2026-05-08 20:20 | 51.42721 | 17.20127 | 30177 ft | 214 kts | 251° |
| 2026-05-08 20:20 | 51.42187 | 17.17882 | 30215 ft | 217 kts | 251° |
| 2026-05-08 20:20 | 51.41644 | 17.15601 | 30263 ft | 221 kts | 251° |
| 2026-05-08 20:21 | 51.41092 | 17.13282 | 30306 ft | 225 kts | 251° |
| 2026-05-08 20:21 | 51.40530 | 17.10927 | 30343 ft | 229 kts | 251° |
| 2026-05-08 20:21 | 51.39957 | 17.08526 | 30390 ft | 233 kts | 251° |
| 2026-05-08 20:21 | 51.39373 | 17.06083 | 30435 ft | 237 kts | 251° |
| 2026-05-08 20:22 | 51.38776 | 17.03592 | 30482 ft | 242 kts | 251° |
| 2026-05-08 20:22 | 51.38169 | 17.01058 | 30532 ft | 247 kts | 251° |
| 2026-05-08 20:22 | 51.37548 | 16.98468 | 30579 ft | 252 kts | 251° |
| 2026-05-08 20:22 | 51.37130 | 16.96728 | 30615 ft | 255 kts | 251° |
| 2026-05-08 20:23 | 51.36267 | 16.93140 | 30683 ft | 262 kts | 251° |
| 2026-05-08 20:23 | 51.35605 | 16.90394 | 30732 ft | 267 kts | 251° |
| 2026-05-08 20:23 | 51.34932 | 16.87602 | 30783 ft | 272 kts | 250° |
| 2026-05-08 20:23 | 51.34254 | 16.84794 | 30826 ft | 277 kts | 250° |
| 2026-05-08 20:24 | 51.33554 | 16.81901 | 30876 ft | 282 kts | 250° |
| 2026-05-08 20:24 | 51.32841 | 16.78957 | 30915 ft | 286 kts | 250° |
| 2026-05-08 20:24 | 51.32114 | 16.75959 | 30958 ft | 291 kts | 250° |
| 2026-05-08 20:24 | 51.31377 | 16.72922 | 30972 ft | 296 kts | 250° |
| 2026-05-08 20:25 | 51.30626 | 16.69835 | 31019 ft | 300 kts | 250° |
| 2026-05-08 20:25 | 51.29865 | 16.66707 | 31060 ft | 304 kts | 250° |
| 2026-05-08 20:25 | 51.28309 | 16.60333 | 31125 ft | 312 kts | 250° |
| 2026-05-08 20:26 | 51.26714 | 16.53818 | 31219 ft | 318 kts | 250° |
| 2026-05-08 20:26 | 51.25908 | 16.50532 | 31337 ft | 317 kts | 250° |
| 2026-05-08 20:26 | 51.25100 | 16.47243 | 31379 ft | 321 kts | 250° |
| 2026-05-08 20:27 | 51.24284 | 16.43925 | 31490 ft | 321 kts | 250° |
| 2026-05-08 20:27 | 51.23467 | 16.40612 | 31606 ft | 320 kts | 250° |
| 2026-05-08 20:27 | 51.22652 | 16.37309 | 31730 ft | 320 kts | 250° |
| 2026-05-08 20:27 | 51.21836 | 16.34006 | 31858 ft | 320 kts | 250° |
| 2026-05-08 20:28 | 51.21020 | 16.30711 | 31982 ft | 319 kts | 250° |
| 2026-05-08 20:28 | 51.20205 | 16.27419 | 32105 ft | 319 kts | 250° |
| 2026-05-08 20:28 | 51.18568 | 16.20831 | 32167 ft | 321 kts | 249° |
| 2026-05-08 20:29 | 51.16976 | 16.14443 | 32152 ft | 306 kts | 249° |
| 2026-05-08 20:29 | 51.16210 | 16.11375 | 32146 ft | 299 kts | 249° |
| 2026-05-08 20:29 | 51.15434 | 16.08271 | 32167 ft | 297 kts | 249° |
| 2026-05-08 20:30 | 51.14667 | 16.05205 | 32178 ft | 298 kts | 249° |
| 2026-05-08 20:30 | 51.13901 | 16.02149 | 32182 ft | 298 kts | 249° |
| 2026-05-08 20:30 | 51.13131 | 15.99082 | 32176 ft | 299 kts | 249° |
| 2026-05-08 20:30 | 51.12359 | 15.96009 | 32177 ft | 299 kts | 249° |
| 2026-05-08 20:31 | 51.11585 | 15.92932 | 32181 ft | 300 kts | 249° |
| 2026-05-08 20:31 | 51.10808 | 15.89850 | 32181 ft | 300 kts | 249° |
| 2026-05-08 20:31 | 51.09248 | 15.83670 | 32115 ft | 305 kts | 249° |
| 2026-05-08 20:32 | 51.08447 | 15.80503 | 31699 ft | 321 kts | 249° |
| 2026-05-08 20:32 | 51.07597 | 15.77148 | 31315 ft | 334 kts | 249° |
| 2026-05-08 20:32 | 51.06713 | 15.73664 | 30939 ft | 343 kts | 249° |
| 2026-05-08 20:32 | 51.05819 | 15.70149 | 30540 ft | 342 kts | 249° |
| 2026-05-08 20:33 | 51.04931 | 15.66663 | 30129 ft | 338 kts | 249° |
| 2026-05-08 20:33 | 51.04053 | 15.63217 | 29667 ft | 335 kts | 249° |
| 2026-05-08 20:33 | 51.03181 | 15.59801 | 29210 ft | 332 kts | 249° |
| 2026-05-08 20:33 | 51.02314 | 15.56414 | 28759 ft | 330 kts | 249° |
| 2026-05-08 20:34 | 51.01453 | 15.53055 | 28324 ft | 328 kts | 249° |
| 2026-05-08 20:34 | 51.00601 | 15.49755 | 27880 ft | 326 kts | 249° |
| 2026-05-08 20:34 | 50.98889 | 15.43136 | 27047 ft | 323 kts | 249° |
| 2026-05-08 20:35 | 50.98039 | 15.39850 | 26621 ft | 322 kts | 249° |
| 2026-05-08 20:35 | 50.97185 | 15.36556 | 26074 ft | 324 kts | 249° |
| 2026-05-08 20:35 | 50.96329 | 15.33262 | 25558 ft | 321 kts | 249° |
| 2026-05-08 20:35 | 50.95486 | 15.30020 | 25035 ft | 316 kts | 249° |
| 2026-05-08 20:36 | 50.94733 | 15.26775 | 24545 ft | 311 kts | 252° |
| 2026-05-08 20:36 | 50.94083 | 15.23601 | 24438 ft | 294 kts | 253° |
| 2026-05-08 20:36 | 50.93485 | 15.20598 | 24329 ft | 277 kts | 253° |
| 2026-05-08 20:36 | 50.92954 | 15.17942 | 24226 ft | 261 kts | 253° |
| 2026-05-08 20:37 | 50.92443 | 15.15405 | 24104 ft | 244 kts | 253° |
| 2026-05-08 20:37 | 50.91941 | 15.12928 | 23921 ft | 231 kts | 253° |
| 2026-05-08 20:37 | 50.91442 | 15.10472 | 23471 ft | 241 kts | 253° |
| 2026-05-08 20:37 | 50.91095 | 15.08769 | 23279 ft | 250 kts | 253° |
| 2026-05-08 20:38 | 50.90549 | 15.06091 | 22939 ft | 260 kts | 253° |
| 2026-05-08 20:38 | 50.89984 | 15.03337 | 22596 ft | 263 kts | 253° |
| 2026-05-08 20:38 | 50.89419 | 15.00592 | 22252 ft | 261 kts | 253° |
| 2026-05-08 20:38 | 50.88858 | 14.97869 | 21903 ft | 259 kts | 253° |
| 2026-05-08 20:39 | 50.88299 | 14.95167 | 21561 ft | 257 kts | 253° |
| 2026-05-08 20:39 | 50.87744 | 14.92485 | 21221 ft | 256 kts | 253° |
| 2026-05-08 20:39 | 50.87188 | 14.89808 | 20895 ft | 257 kts | 253° |
| 2026-05-08 20:39 | 50.86529 | 14.87177 | 20559 ft | 259 kts | 242° |
| 2026-05-08 20:40 | 50.85480 | 14.84867 | 20223 ft | 258 kts | 230° |
| 2026-05-08 20:40 | 50.84171 | 14.82918 | 19902 ft | 258 kts | 224° |
| 2026-05-08 20:40 | 50.82800 | 14.81114 | 19577 ft | 255 kts | 222° |
| 2026-05-08 20:40 | 50.81432 | 14.79353 | 19262 ft | 252 kts | 222° |
| 2026-05-08 20:41 | 50.80080 | 14.77611 | 18950 ft | 249 kts | 223° |
| 2026-05-08 20:41 | 50.78745 | 14.75881 | 18629 ft | 247 kts | 223° |
| 2026-05-08 20:41 | 50.77420 | 14.74158 | 18309 ft | 246 kts | 223° |
| 2026-05-08 20:41 | 50.76107 | 14.72447 | 17954 ft | 244 kts | 223° |
| 2026-05-08 20:42 | 50.74805 | 14.70746 | 17609 ft | 242 kts | 223° |
| 2026-05-08 20:42 | 50.73526 | 14.69074 | 17269 ft | 241 kts | 223° |
| 2026-05-08 20:42 | 50.72220 | 14.67367 | 16930 ft | 240 kts | 223° |
| 2026-05-08 20:42 | 50.70936 | 14.65689 | 16596 ft | 240 kts | 223° |
| 2026-05-08 20:43 | 50.69671 | 14.64035 | 16262 ft | 239 kts | 223° |
| 2026-05-08 20:43 | 50.68396 | 14.62369 | 15933 ft | 238 kts | 223° |
| 2026-05-08 20:43 | 50.67121 | 14.60704 | 15605 ft | 237 kts | 223° |
| 2026-05-08 20:43 | 50.65851 | 14.59046 | 15288 ft | 237 kts | 223° |
| 2026-05-08 20:44 | 50.64581 | 14.57389 | 14962 ft | 237 kts | 222° |
| 2026-05-08 20:44 | 50.63316 | 14.55738 | 14640 ft | 236 kts | 222° |
| 2026-05-08 20:44 | 50.62033 | 14.54068 | 14314 ft | 236 kts | 222° |
| 2026-05-08 20:44 | 50.60771 | 14.52427 | 14037 ft | 234 kts | 222° |
| 2026-05-08 20:45 | 50.59558 | 14.50854 | 13962 ft | 217 kts | 222° |
| 2026-05-08 20:45 | 50.58436 | 14.49411 | 13939 ft | 200 kts | 220° |
| 2026-05-08 20:45 | 50.57290 | 14.48172 | 13962 ft | 201 kts | 216° |
| 2026-05-08 20:45 | 50.56132 | 14.46991 | 13959 ft | 200 kts | 216° |
| 2026-05-08 20:46 | 50.54951 | 14.45790 | 13904 ft | 201 kts | 216° |
| 2026-05-08 20:46 | 50.53760 | 14.44574 | 13611 ft | 205 kts | 216° |
| 2026-05-08 20:46 | 50.52566 | 14.43353 | 13353 ft | 204 kts | 216° |
| 2026-05-08 20:46 | 50.51385 | 14.42143 | 12988 ft | 204 kts | 216° |
| 2026-05-08 20:47 | 50.50196 | 14.40919 | 12538 ft | 209 kts | 216° |
| 2026-05-08 20:47 | 50.48971 | 14.39659 | 12094 ft | 212 kts | 216° |
| 2026-05-08 20:47 | 50.47727 | 14.38379 | 11641 ft | 216 kts | 216° |
| 2026-05-08 20:47 | 50.46461 | 14.37078 | 11203 ft | 219 kts | 216° |
| 2026-05-08 20:48 | 50.45180 | 14.35762 | 10761 ft | 222 kts | 215° |
| 2026-05-08 20:48 | 50.43859 | 14.34433 | 10322 ft | 224 kts | 210° |
| 2026-05-08 20:48 | 50.42378 | 14.33882 | 10184 ft | 215 kts | 181° |
| 2026-05-08 20:48 | 50.40941 | 14.34070 | 10139 ft | 199 kts | 175° |
| 2026-05-08 20:49 | 50.39599 | 14.34350 | 10158 ft | 197 kts | 175° |
| 2026-05-08 20:49 | 50.38238 | 14.34642 | 10160 ft | 197 kts | 175° |
| 2026-05-08 20:49 | 50.36877 | 14.34931 | 10166 ft | 197 kts | 175° |
| 2026-05-08 20:49 | 50.35494 | 14.35220 | 9898 ft | 207 kts | 175° |
| 2026-05-08 20:50 | 50.34039 | 14.35519 | 9422 ft | 213 kts | 175° |
| 2026-05-08 20:50 | 50.32557 | 14.35823 | 8962 ft | 216 kts | 175° |
| 2026-05-08 20:50 | 50.31054 | 14.36129 | 8516 ft | 219 kts | 175° |
| 2026-05-08 20:50 | 50.29531 | 14.36437 | 8096 ft | 221 kts | 174° |
| 2026-05-08 20:51 | 50.28062 | 14.36735 | 8001 ft | 206 kts | 175° |
| 2026-05-08 20:51 | 50.26685 | 14.37014 | 7886 ft | 193 kts | 175° |
| 2026-05-08 20:51 | 50.25370 | 14.37278 | 7649 ft | 189 kts | 175° |
| 2026-05-08 20:51 | 50.24075 | 14.37536 | 7378 ft | 187 kts | 175° |
| 2026-05-08 20:52 | 50.22784 | 14.37794 | 7090 ft | 187 kts | 175° |
| 2026-05-08 20:52 | 50.21521 | 14.38045 | 6787 ft | 187 kts | 175° |
| 2026-05-08 20:52 | 50.20292 | 14.38290 | 6536 ft | 186 kts | 175° |
| 2026-05-08 20:52 | 50.19023 | 14.38542 | 6235 ft | 185 kts | 175° |
| 2026-05-08 20:53 | 50.17749 | 14.38795 | 5911 ft | 186 kts | 174° |
| 2026-05-08 20:53 | 50.16418 | 14.39058 | 5375 ft | 199 kts | 174° |
| 2026-05-08 20:53 | 50.15012 | 14.39337 | 4865 ft | 207 kts | 173° |
| 2026-05-08 20:53 | 50.13678 | 14.40109 | 4280 ft | 211 kts | 138° |
| 2026-05-08 20:54 | 50.12771 | 14.41891 | 3787 ft | 210 kts | 125° |
| 2026-05-08 20:54 | 50.11933 | 14.43666 | 3551 ft | 198 kts | 126° |
| 2026-05-08 20:54 | 50.11142 | 14.45313 | 3482 ft | 180 kts | 126° |
| 2026-05-08 20:54 | 50.10398 | 14.46857 | 3497 ft | 179 kts | 126° |
| 2026-05-08 20:55 | 50.09650 | 14.48402 | 3490 ft | 177 kts | 126° |
| 2026-05-08 20:55 | 50.08911 | 14.49925 | 3490 ft | 176 kts | 126° |
| 2026-05-08 20:55 | 50.08171 | 14.51447 | 3502 ft | 176 kts | 126° |
| 2026-05-08 20:55 | 50.07429 | 14.52973 | 3505 ft | 177 kts | 126° |
| 2026-05-08 20:56 | 50.06686 | 14.54498 | 3508 ft | 177 kts | 126° |
| 2026-05-08 20:56 | 50.05856 | 14.55910 | 3483 ft | 179 kts | 150° |
| 2026-05-08 20:56 | 50.04668 | 14.56144 | 3514 ft | 177 kts | 199° |
| 2026-05-08 20:56 | 50.03602 | 14.55161 | 3514 ft | 181 kts | 214° |
| 2026-05-08 20:57 | 50.02668 | 14.54183 | 3493 ft | 180 kts | 214° |
| 2026-05-08 20:57 | 50.01627 | 14.53097 | 3496 ft | 180 kts | 214° |
| 2026-05-08 20:57 | 50.00585 | 14.52012 | 3484 ft | 180 kts | 214° |
| 2026-05-08 20:57 | 49.99617 | 14.50811 | 3466 ft | 178 kts | 236° |
| 2026-05-08 20:58 | 49.99392 | 14.49034 | 3493 ft | 173 kts | 289° |
| 2026-05-08 20:58 | 49.99983 | 14.47391 | 3513 ft | 178 kts | 302° |
| 2026-05-08 20:58 | 50.00641 | 14.45758 | 3494 ft | 178 kts | 304° |
| 2026-05-08 20:58 | 50.01351 | 14.44192 | 3479 ft | 176 kts | 307° |
| 2026-05-08 20:59 | 50.02072 | 14.42675 | 3477 ft | 173 kts | 307° |
| 2026-05-08 20:59 | 50.02802 | 14.41153 | 3339 ft | 179 kts | 308° |
| 2026-05-08 20:59 | 50.03549 | 14.39599 | 3108 ft | 178 kts | 308° |
| 2026-05-08 20:59 | 50.04272 | 14.38093 | 2903 ft | 171 kts | 308° |
| 2026-05-08 21:00 | 50.04983 | 14.36615 | 2652 ft | 173 kts | 308° |
| 2026-05-08 21:00 | 50.05677 | 14.35171 | 2413 ft | 174 kts | 308° |
| 2026-05-08 21:00 | 50.06391 | 14.33684 | 2166 ft | 166 kts | 308° |
| 2026-05-08 21:00 | 50.07051 | 14.32312 | 1919 ft | 151 kts | 308° |
| 2026-05-08 21:01 | 50.07650 | 14.31069 | 1733 ft | 138 kts | 309° |
| 2026-05-08 21:01 | 50.08239 | 14.29854 | 1536 ft | 143 kts | 309° |
| 2026-05-08 21:01 | 50.08818 | 14.28629 | 1374 ft | 141 kts | 308° |
| 2026-05-08 21:01 | 50.09412 | 14.27394 | 1228 ft | 135 kts | 309° |
| 2026-05-08 21:02 | 50.09890 | 14.26429 | 1198 ft | 84 kts | 307° |
| 2026-05-08 21:02 | 50.10075 | 14.26050 | 1186 ft | 5 kts | 307° |
| 2026-05-08 21:02 | 50.10147 | 14.25900 | 1185 ft | 28 kts | 306° |
| 2026-05-08 21:02 | 50.10281 | 14.25700 | 1184 ft | 14 kts | 336° |
| 2026-05-08 21:03 | 50.10383 | 14.25656 | 1182 ft | 16 kts | 355° |
| 2026-05-08 21:03 | 50.10464 | 14.25669 | 1183 ft | 3 kts | 24° |
| 2026-05-08 21:03 | 50.10480 | 14.25698 | 1183 ft | 4 kts | 60° |
| 2026-05-08 21:03 | 50.10491 | 14.25751 | 1183 ft | 7 kts | 78° |
| 2026-05-08 21:04 | 50.10502 | 14.25839 | 1184 ft | 10 kts | 82° |
| 2026-05-08 21:04 | 50.10515 | 14.25950 | 1187 ft | 11 kts | 78° |
| 2026-05-08 21:04 | 50.10533 | 14.26078 | 1188 ft | 14 kts | 78° |
| 2026-05-08 21:04 | 50.10541 | 14.26182 | 1187 ft | 9 kts | 94° |
| 2026-05-08 21:05 | 50.10518 | 14.26286 | 1186 ft | 12 kts | 121° |
| 2026-05-08 21:05 | 50.10476 | 14.26381 | 1188 ft | 0 kts | 130° |
| 2026-05-08 21:05 | 50.10469 | 14.26395 | 1189 ft | 4 kts | 126° |
| 2026-05-08 21:05 | 50.10459 | 14.26416 | 1189 ft | 3 kts | 126° |
| 2026-05-08 21:06 | 50.10460 | 14.26459 | 1189 ft | 5 kts | 43° |
| 2026-05-08 21:06 | 50.10482 | 14.26473 | 1188 ft | 4 kts | 27° |
| 2026-05-08 21:06 | 50.10488 | 14.26478 | 1188 ft | 0 kts | 29° |